OBBIEGLL

Guest
Details From OBBI - Bahrain Intl
To EGLL - London Heathrow
Flight Number -
Tags Generated
Created
Modified
Stats Distance 2,752 nm / 5,097 km
Max Altitude 0 ft / 0 m
Waypoints 11
Social Downloads 1
Likes 0
Share VATSIM

Download

Looking for another format? Having issues loading an existing format? Contact us
Advertisement - Login to hide

Notes

Generated

Route

OBBI ASB18 ADRES YUCEL VALPA TSR WW901 BOLSI LGE03 DET20 EGLL

ID Type Via Altitude Latitude Longitude Leg Dist Tot Dist Heading (true) Name
O OBBI APT - 0 ft / 0 m 26.27100˚ 50.62993˚ - 0 nm - -
ASB18 FIX - 0 ft / 0 m 29.14357˚ 47.51090˚ 239 nm 239 nm 317° / 315° -
ADRES FIX - 0 ft / 0 m 37.17139˚ 37.33361˚ 702 nm 941 nm 316° / 310° -
YUCEL FIX - 0 ft / 0 m 39.58000˚ 33.58584˚ 228 nm 1169 nm 310° / 308° -
VALPA FIX - 0 ft / 0 m 44.07959˚ 25.25300˚ 460 nm 1629 nm 309° / 303° -
TSR NDB - 0 ft / 0 m 45.81799˚ 21.30541˚ 197 nm 1827 nm 303° / 300° TIMISOARA NDB
WW901 FIX - 0 ft / 0 m 47.74959˚ 15.88119˚ 251 nm 2078 nm 299° / 295° -
BOLSI FIX - 0 ft / 0 m 49.23113˚ 10.75751˚ 222 nm 2301 nm 295° / 292° -
LGE03 FIX - 0 ft / 0 m 50.48214˚ 5.29070˚ 224 nm 2525 nm 292° / 287° -
DET20 FIX - 0 ft / 0 m 51.37769˚ 0.07852˚ 204 nm 2730 nm 287° / 283° -
O EGLL APT - 0 ft / 0 m 51.46477˚ -0.48695˚ 21 nm 2751 nm 284° / 284° -

Altitude Profile

Advertisement - Login to hide

Weather


0- 5 10 15 20 25 30 35+ Temperature / ° C

Clouds and Precipitation
Forecast for 2018-05-24 18:00 UTC. Updated 5 hours ago

Ground ~20,000 ft ~40,000 ft Winds

OBBI

Details ICAO OBBI (BAH)
Name BAHRAIN INTL
Region Bahrain
Timezone Asia/Bahrain (UTC+3.0)
Stats Elevation 6 ft / 2 m (AMSL)
Location 26.267837° 50.637095°
Runways 2
Magnetic Variation 2.783° E

METAR

OBBI 242200Z 12004KT CAVOK 30/23 Q1003 NOSIG

Decode

TAF

TAF OBBI 241700Z 2418/2600 12010KT 7000 NSC= TAF OKBK 241645Z 2418/2524 18008G20KT 7000 NSC TEMPO 2418/2424 3000 BLDU

Decode

Departure Runways

ID Width Length Bearing (true) Bearing (mag) Surface Threshold Offset Overrun Length
12L 197 ft / 60 m 12,893 ft / 3,930 m 122.74° 119.96° Asphalt 1,000 ft / 305 m 0 ft / 0 m
12R 148 ft / 45 m 8,303 ft / 2,531 m 122.76° 119.98° Asphalt 1,000 ft / 305 m 0 ft / 0 m
30L 148 ft / 45 m 8,303 ft / 2,531 m 302.77° 299.99° Asphalt 395 ft / 120 m 0 ft / 0 m
30R 197 ft / 60 m 12,893 ft / 3,930 m 302.75° 299.97° Asphalt 1,000 ft / 305 m 0 ft / 0 m

EGLL

Details ICAO EGLL (LHR)
Name London Heathrow
Region United Kingdom
Timezone Europe/London (UTC+1.0)
Stats Elevation 83 ft / 25 m (AMSL)
Location 51.471218° -0.460978°
Runways 2
Magnetic Variation 0.495° W

METAR

EGLL 242150Z AUTO 02005KT 340V060 9999 NCD 16/13 Q1018 NOSIG

Decode

TAF

TAF EGLL 241701Z 2418/2524 24010KT 9000 FEW030 BECMG 2418/2421 34003KT TEMPO 2418/2424 4000 SHRA PROB30 TEMPO 2418/2424 +SHRA BKN014 BKN040CB BECMG 2500/2503 BKN008 PROB30 TEMPO 2500/2507 4000 SHRA BR BKN004 BECMG 2508/2511 9999 FEW020 PROB30 TEMPO 2517/2520 7000 SHRA

Decode

Destination Runways

ID Width Length Bearing (true) Bearing (mag) Surface Threshold Offset Overrun Length
09L 164 ft / 50 m 12,811 ft / 3,905 m 89.64° 90.13° Asphalt 1,004 ft / 306 m 0 ft / 0 m
09R 164 ft / 50 m 12,019 ft / 3,663 m 89.67° 90.16° Asphalt 1,007 ft / 307 m 0 ft / 0 m
27L 164 ft / 50 m 12,019 ft / 3,663 m 269.71° 270.20° Asphalt 0 ft / 0 m 69 ft / 21 m
27R 164 ft / 50 m 12,811 ft / 3,905 m 269.69° 270.18° Asphalt 0 ft / 0 m 69 ft / 21 m

Approach Navaids

Runway Type Ident Frequency Range Bearing (true) Bearing (mag) Slope Elevation
09L Localiser IAA 110.30 MHz 18 nm / 33 km 89.69° 90.19° - 83 ft / 25 m (AMSL)
09L Glidescope IAA 110.30 MHz 10 nm / 19 km 89.67° 90.16° 3.00° 51 ft / 16 m (AMSL)
09L DME IAA 110.30 MHz 18 nm / 33 km - - - 89 ft / 27 m (AMSL)
09R Localiser IBB 109.50 MHz 18 nm / 33 km 89.73° 90.22° - 83 ft / 25 m (AMSL)
09R Glidescope IBB 109.50 MHz 10 nm / 19 km 89.69° 90.18° 3.00° 52 ft / 16 m (AMSL)
09R DME IBB 109.50 MHz 18 nm / 33 km - - - 84 ft / 26 m (AMSL)
27L Localiser ILL 109.50 MHz 18 nm / 33 km 269.67° 270.16° - 83 ft / 25 m (AMSL)
27L Glidescope ILL 109.50 MHz 10 nm / 19 km 269.69° 270.18° 3.00° 56 ft / 17 m (AMSL)
27L DME ILL 109.50 MHz 18 nm / 33 km - - - 84 ft / 26 m (AMSL)
27R Localiser IRR 110.30 MHz 18 nm / 33 km 269.66° 270.15° - 83 ft / 25 m (AMSL)
27R Glidescope IRR 110.30 MHz 10 nm / 19 km 269.67° 270.16° 3.00° 60 ft / 18 m (AMSL)
27R DME IRR 110.30 MHz 18 nm / 33 km - - - 89 ft / 27 m (AMSL)

Popular Alternatives